createdAt,value
2022-11-06T00:03:28.497Z,17
2022-11-06T00:08:41.120Z,110
2022-11-06T00:13:52.598Z,82.5
2022-11-06T00:19:02.763Z,11.1
2022-11-06T00:24:14.189Z,37.1
2022-11-06T00:29:26.215Z,12.5
2022-11-06T00:34:38.408Z,80.2
2022-11-06T00:39:49.676Z,137.3
2022-11-06T00:44:59.150Z,176.7
2022-11-06T00:50:11.073Z,58
2022-11-06T00:55:21.766Z,119.8
2022-11-06T01:00:30.739Z,83.3
2022-11-06T01:11:05.761Z,44
2022-11-06T01:21:34.783Z,665.6
2022-11-06T01:27:25.836Z,273.3
2022-11-06T01:31:59.534Z,413.4
2022-11-06T01:37:15.029Z,800.7
2022-11-06T01:42:22.025Z,570.7
2022-11-06T01:47:37.514Z,551.6
2022-11-06T01:52:53.318Z,16.1
2022-11-06T01:58:09.288Z,148.9
2022-11-06T02:03:21.522Z,378.7
2022-11-06T02:08:37.075Z,774
2022-11-06T02:13:47.948Z,536.4
2022-11-06T02:19:04.118Z,96.9
2022-11-06T02:24:15.480Z,457.2
2022-11-06T02:29:32.157Z,126.6
2022-11-06T02:34:48.150Z,82.2
2022-11-06T02:40:04.372Z,94.1
2022-11-06T02:45:16.261Z,74.5
2022-11-06T02:50:34.067Z,91.7
2022-11-06T02:55:49.831Z,71.1
2022-11-06T03:01:01.549Z,74.6
2022-11-06T03:06:16.827Z,53.5
2022-11-06T03:11:30.996Z,124.8
2022-11-06T03:16:46.799Z,67.1
2022-11-06T03:21:59.376Z,16.3
2022-11-06T03:27:10.874Z,10.2
2022-11-06T03:32:22.999Z,10.5
2022-11-06T03:37:38.545Z,38.4
2022-11-06T03:42:55.630Z,17.2
2022-11-06T03:48:05.979Z,7.6
2022-11-06T03:53:22.145Z,13.8
2022-11-06T03:58:31.586Z,193.7
2022-11-06T04:03:47.163Z,358.5
2022-11-06T04:09:01.900Z,457
2022-11-06T04:14:12.058Z,299
2022-11-06T04:24:49.541Z,123.6
2022-11-06T04:30:02.154Z,110.4
2022-11-06T04:35:14.652Z,149.3
2022-11-06T04:40:24.747Z,167.5
2022-11-06T04:45:39.656Z,138.4
2022-11-06T04:50:53.984Z,283.8
2022-11-06T04:56:03.241Z,867.9
2022-11-06T05:01:18.553Z,296
2022-11-06T05:06:30.698Z,487.6
2022-11-06T05:11:46.417Z,557.8
2022-11-06T05:16:58.244Z,329.3
2022-11-06T05:22:14.803Z,583.2
2022-11-06T05:27:31.750Z,221.8
2022-11-06T05:32:40.961Z,376
2022-11-06T05:37:53.147Z,304.5
2022-11-06T05:43:08.360Z,202.8
2022-11-06T05:48:24.515Z,367.6
2022-11-06T05:53:37.409Z,243.4
2022-11-06T05:58:50.099Z,194.5
2022-11-06T06:04:04.462Z,394.3
2022-11-06T06:09:15.208Z,320.8
2022-11-06T06:14:26.124Z,585
2022-11-06T06:19:39.758Z,960.4
2022-11-06T06:24:55.193Z,473.8
2022-11-06T06:30:09.628Z,354
2022-11-06T06:35:21.451Z,310.6
2022-11-06T06:40:33.248Z,120.8
2022-11-06T06:45:46.172Z,195.3
2022-11-06T06:51:01.603Z,10
2022-11-06T06:56:17.524Z,88.8
2022-11-06T07:01:33.863Z,41.7
2022-11-06T07:06:46.012Z,55.5
2022-11-06T07:12:01.866Z,9
2022-11-06T07:17:18.481Z,19.4
2022-11-06T07:22:37.548Z,20.1
2022-11-06T07:27:46.798Z,55
2022-11-06T07:32:58.612Z,91.3
2022-11-06T07:38:11.473Z,239.9
2022-11-06T07:43:26.986Z,151.7
2022-11-06T07:48:37.601Z,108
2022-11-06T07:53:49.093Z,150.7
2022-11-06T07:59:00.786Z,108.2
2022-11-06T08:04:12.310Z,96.2
2022-11-06T08:09:24.264Z,142.6
2022-11-06T08:14:41.510Z,12.2
2022-11-06T08:19:52.534Z,36.9
2022-11-06T08:25:05.210Z,5
2022-11-06T08:30:16.725Z,11.1
2022-11-06T08:35:27.105Z,48.3
2022-11-06T08:40:36.290Z,287.9
2022-11-06T08:45:57.714Z,5
2022-11-06T08:51:00.693Z,78.9
2022-11-06T08:56:11.486Z,6.9
2022-11-06T09:01:23.058Z,4.5
2022-11-06T09:06:34.802Z,3.8
2022-11-06T09:22:30.825Z,3.1
2022-11-06T09:27:43.615Z,3.1
2022-11-06T09:32:56.463Z,9.2
2022-11-06T09:38:12.454Z,2.9
2022-11-06T09:44:03.300Z,2.5
2022-11-06T09:48:32.758Z,1.9
2022-11-06T09:53:44.241Z,1.6
2022-11-06T09:58:51.234Z,2.2
2022-11-06T10:04:06.845Z,1.7
2022-11-06T10:09:18.741Z,1.8
2022-11-06T10:14:33.005Z,6.6
2022-11-06T10:25:08.777Z,2
2022-11-06T10:30:23.266Z,1.4
2022-11-06T10:46:13.127Z,2
2022-11-06T10:51:29.792Z,73.7
2022-11-06T10:56:50.187Z,0.9
2022-11-06T11:02:13.361Z,1.6
2022-11-06T11:12:45.340Z,2.8
2022-11-06T11:18:14.116Z,8.1
2022-11-06T11:23:26.999Z,1.4
2022-11-06T11:28:40.677Z,0.8
2022-11-06T11:44:37.091Z,1.5
2022-11-06T11:49:51.828Z,45
2022-11-06T11:55:03.130Z,1.3
2022-11-06T12:00:11.261Z,0.8
2022-11-06T12:10:46.944Z,1.3
2022-11-06T12:21:19.992Z,1.2
2022-11-06T12:26:34.231Z,1.1
2022-11-06T12:37:06.856Z,1.1
2022-11-06T12:42:18.406Z,50.8
2022-11-06T12:47:30.644Z,1.4
2022-11-06T12:52:41.620Z,1.3
2022-11-06T12:57:52.905Z,1.4
2022-11-06T13:02:57.512Z,2
2022-11-06T13:08:13.414Z,0.7
2022-11-06T13:13:26.375Z,6.4
2022-11-06T13:18:38.247Z,0.7
2022-11-06T13:23:55.062Z,1
2022-11-06T13:29:08.094Z,0.7
2022-11-06T13:34:19.007Z,1.2
2022-11-06T13:39:27.646Z,3.4
2022-11-06T13:50:05.317Z,0.6
2022-11-06T14:05:58.050Z,1.4
2022-11-06T14:11:14.801Z,1.6
2022-11-06T14:21:44.318Z,12.7
2022-11-06T14:26:59.985Z,2.6
2022-11-06T14:32:10.353Z,2.8
2022-11-06T14:37:21.532Z,7.4
2022-11-06T14:42:34.203Z,1.6
2022-11-06T14:47:50.225Z,15.1
2022-11-06T14:53:06.477Z,2.4
2022-11-06T15:03:38.667Z,5.7
2022-11-06T15:14:21.067Z,11.4
2022-11-06T15:19:30.765Z,1.8
2022-11-06T15:24:47.206Z,1.1
2022-11-06T15:35:16.467Z,2.1
2022-11-06T15:51:13.060Z,4.9
2022-11-06T15:56:24.176Z,3.2
2022-11-06T16:01:35.764Z,1.9
2022-11-06T16:06:50.798Z,5.5
2022-11-06T16:12:04.863Z,2.2
2022-11-06T16:17:20.880Z,5.5
2022-11-06T16:22:32.923Z,7.8
2022-11-06T16:33:05.259Z,11.4
2022-11-06T16:43:39.032Z,7.7
2022-11-06T16:48:50.368Z,14
2022-11-06T16:54:01.176Z,8.7
2022-11-06T16:59:13.535Z,11.8
2022-11-06T17:04:26.354Z,5
2022-11-06T17:09:41.526Z,9.8
2022-11-06T17:14:53.940Z,4.5
2022-11-06T17:20:17.339Z,8.2
2022-11-06T17:25:22.175Z,5.9
2022-11-06T17:30:32.392Z,7.2
2022-11-06T17:35:48.444Z,10.2
2022-11-06T17:46:22.149Z,7.2
2022-11-06T17:51:34.254Z,4.4
2022-11-06T17:56:45.943Z,6.6
2022-11-06T18:07:23.563Z,9.2
2022-11-06T18:12:39.067Z,5.7
2022-11-06T18:17:51.979Z,7.2
2022-11-06T18:23:07.002Z,10.3
2022-11-06T18:33:42.133Z,6.6
2022-11-06T18:38:53.665Z,9.9
2022-11-06T18:44:06.151Z,24.8
2022-11-06T18:49:16.782Z,121.7
2022-11-06T18:54:32.764Z,26.7
2022-11-06T18:59:48.031Z,6.2
2022-11-06T19:10:19.840Z,5.8
2022-11-06T19:31:36.762Z,6.6
2022-11-06T19:42:11.439Z,5.8
2022-11-06T19:47:23.269Z,6.8
2022-11-06T20:03:18.443Z,7.3
2022-11-06T20:08:29.481Z,4.6
2022-11-06T20:19:01.969Z,2.4
2022-11-06T20:29:35.628Z,9.9
2022-11-06T20:34:45.560Z,5.8
2022-11-06T20:39:57.761Z,2.7
2022-11-06T21:01:13.230Z,2.1
2022-11-06T21:11:46.667Z,2.3
2022-11-06T21:16:58.585Z,3.5
2022-11-06T21:38:16.260Z,1
2022-11-06T21:59:31.588Z,0.6
2022-11-06T22:04:43.101Z,1.2
2022-11-06T22:20:36.985Z,1.2
2022-11-06T22:41:52.976Z,1.6
2022-11-06T23:03:10.903Z,0.7
2022-11-06T23:24:27.701Z,1
2022-11-06T23:45:43.497Z,0.9
2022-11-06T23:56:16.701Z,1
